dinsdag 20 augustus 2019 | Home | Bestenlijsten | Bestenlijsten NL | Calculators | Nieuws | Records | Uitslagen | Videos | Wedstrijden | VZA Ranglijsten | Weer |
 
 
Recent nieuws meer nieuws
09-08: Voor de 10e keer Kapelsedagloop
01-08: Train eens mee met de M.R.T.
17-07: Mijn naam is haas en ik weet…..
08-07: Hanteer eens limieten
02-07: From Dusk Till Dawn - Rondje Veerse Meer
21-06: Was het nu eigenlijk wel een marathon?
Wedstrijdagenda meer wedstrijden
di 20-08: Avondbaanwedstrijd Terneuzen
vr 23-08: Hardloop3Daagse Groot-Valkenisse
za 24-08: Allonsius Sport Meeting Huizingen
za 24-08: 33e Halve Marathon Westenschouwen
wo 28-08: Kreekloop Terneuzen
vr 30-08: 10e Kapelsedag Loop Kapelle-Biezelinge
vr 30-08: Track Meeting Utrecht
zo 01-09: 31e Tilburg Ten Miles
za 07-09: Baanwedstrijd Hulst
za 07-09: Bosse Pielenloop Vogelwaarde
za 07-09: 13e Kustloop Vrouwenpolder
vr 13-09: Avondbaanwedstrijd Vlissingen
vr 13-09: 24e Stadsloop Goes
za 14-09: d'Ossekoppenloop Ossenisse
zo 15-09: Dwars Door De Zwingeul Cadzand-Bad
vr 20-09: Wemeldingeloop
za 21-09: Halve Marathon van Tholen
za 21-09: Bamisrun Kloosterzande
zo 22-09: 2e Vaart van Vlissingen
zo 22-09: 35e Dam tot Damloop Amsterdam
zo 22-09: 3e Kraaieloop Lewedorp
Recente uitslagen meer uitslagen
za 10-08: 15 van Wolphaartsdijk (154)
vr 09-08: 35e Strandloop Ouddorp
di 06-08: 6e Zomerloop Zuidzande (103)
wo 31-07: 82e Boulevardloop Vlissingen (290)
di 30-07: 5e Zomerloop Cadzand-Bad (104)
wo 24-07: 36e Bokaalloop Burgh-Haamstede (109)
di 23-07: 4e Zomerloop Groede (102)
wo 17-07: 40e Stratenloop Westkapelle (192)
di 16-07: 3e Zomerloop Retranchement (87)
za 13-07: Ronde van Sint Kruis (37)
wo 10-07: 9e Sportvissersloop Yerseke (250)
di 09-07: 2e Zomerloop Nieuwvliet (158)
 
Zoek tenminste met 3 tekens van wedstrijd, datum, plaats of atleet

Berlaerloop

Koewacht, zaterdag 2 februari 2019 - Organisatie: VV Koewacht
12.5 km
PltsNaam
Tijdkm/umin/kmm/secachter
1  Joris ZamanNieuw-Namen46.28M40   16.141  3:434.48-
2  Heather DobbelaerSint-Niklaas52.34Mse   14.268  4:123.96+6:06
3  Mike CornelisTemse53.15Mse   14.085  4:163.91+6:47
4  Jos van GrembergheKoewacht54.36M60   13.736  4:223.82+8:08
5  Chris SchelkensDendermonde54.44M55   13.703  4:233.81+8:16
6  Koen van GijselMoerbeke55.42M45   13.465  4:273.74+9:14
7  Stefaan de MaeyerNieuwkerken55.55M45   13.413  4:283.73+9:27
8  Michael VerstraetenMoerbeke56.19Mse   13.318  4:303.70+9:51
9  Ivan de KeiserWaasmunster56.27M55   13.286  4:313.69+9:59
10  Gian ScheeleZaamslag57.43Mse   12.995  4:373.61+11:15
11  Marco van der SijptTilburg59.02M45   12.705  4:433.53+12:34
12  Frans VerwilligenHulst1.00.15M60   12.448  4:493.46+13:47
13  Luc KusseneersRumst1.00.36M60   12.376  4:513.44+14:08
14  John VetteTerneuzen1.00.38M55   12.369  4:513.44+14:10
15  Bart van RemoorteleKoewacht1.02.39Mse   11.971  5:013.33+16:11
16  Carmen BogaertStekene1.03.30V45   11.811  5:053.28+17:02
17  Willem van der HeydenKieldrecht1.03.39M65   11.783  5:063.27+17:11
18  Michel FieretTerneuzen1.03.43M45   11.771  5:063.27+17:15
19  Kevin KoekkoekKoewacht1.04.55Mse   11.553  5:123.21+18:27
20  Bram van der SijptGroningen1.05.14Mse   11.497  5:133.19+18:46
21  Milan de VosKoewacht1.05.16Mse   11.491  5:133.19+18:48
22  Arjan KestelooKoewacht1.05.48M40   11.398  5:163.17+19:20
23  Marilyn WuytackMoerbeke1.06.21Vse   11.304  5:183.14+19:53
24  Helmut VanderlindenKoewacht1.06.23M40   11.298  5:193.14+19:55
25  Werner StallaartCape Town1.07.04M45   11.183  5:223.11+20:36
26  Yves BrackeZelzate1.07.55M40   11.043  5:263.07+21:27
27  Shana de MeijerZelzate1.07.59Vse   11.032  5:263.06+21:31
28  Mieke BooneOosteeklo1.08.01V35   11.027  5:263.06+21:33
29  Tima AchelhiAntwerpen1.08.12Vse   10.997  5:273.05+21:44
30  Kristel de MaeyerDeurne1.08.17V40   10.984  5:283.05+21:49
31  Ludwig van GeyteZele1.09.30M60   10.791  5:343.00+23:02
32  Denny BuysroggeKoewacht1.09.58M40   10.719  5:362.98+23:30
33  Ko de KoeijerZaamslag1.10.15M65   10.676  5:372.97+23:47
34  Ronald BreepoelSluiskil1.10.18M55   10.669  5:372.96+23:50
35  Kim de KoningKoewacht1.11.38Vse   10.470  5:442.91+25:10
36  Ruud MartensKoewacht1.11.40Mse   10.465  5:442.91+25:12
37  Catelijne BroosKoewacht1.11.43V40   10.458  5:442.90+25:15
38  Jo GoubertDendermonde1.12.26M55   10.354  5:482.88+25:58
39  Willy MerckxStekene1.14.26M65   10.076  5:572.80+27:58
40  Lieve de WitteDendermonde1.14.38V55   10.049  5:582.79+28:10
41  Kris de VosKoewacht1.16.23M45   9.819  6:072.73+29:55
42  Eddy van BovenSchoonaarde1.16.50M60   9.761  6:092.71+30:22
43  Dominique de MeySint-Niklaas1.18.20V55   9.574  6:162.66+31:52
44  Romain BolssensKieldrecht1.18.33M60   9.548  6:172.65+32:05
45  Frans VogelMiddelburg1.20.54M50   9.271  6:282.58+34:26
46  John JansenKoewacht1.22.35M40   9.082  6:362.52+36:07
47  Nadine CoenenKoewacht1.22.38V40   9.076  6:372.52+36:10
48  Pieter HollaertKoewacht1.22.42Mse   9.069  6:372.52+36:14
Mannen: 37 (77.08%) => M40=6 - M45=6 - M50=1 - M55=5 - M60=6 - M65=3 - Mse=10
Vrouwen: 11 (22.92%) => V35=1 - V40=3 - V45=1 - V55=2 - Vse=4

Overzicht Top3, winnares en aantal deelnemers van aanwezige edities

JaarWinnaarTijd2eTijd 3eTijdWinnaresTijd#

12.5 km

2019Joris Zaman46:28Heather Dobbelaer52:34Mike Cornelis53:15Carmen Bogaert1:03:3048

14.4 km

2017Cedric van de Putte48:52Jente Samson51:36Liam de Mey52:42Kristel de Maeyer1:16:4635
2016Yves Depoorter52:34Jente Samson52:45Stijn Vermeersch52:47Astrid Verhage1:05:3850
7.2 km
PltsNaam
Tijdkm/umin/kmm/secachter
1  Ruben MartensKoewacht24.27Mse   17.669  3:244.91-
2  Steven VerniersEvergem26.32M40   16.281  3:414.52+2:05
3  Kevin DavidHulst29.20Mse   14.727  4:044.09+4:53
4  Noah RoelsHulst30.07Mse   14.344  4:113.98+5:40
5  Huub BeelenGoes32.29M60   13.299  4:313.69+8:02
6  Veerle van RaemdonckTemse32.50Vse   13.157  4:343.65+8:23
7  Wout RozijnKoewacht33.40Mse   12.832  4:413.56+9:13
8  Mario SaerensLokeren34.10M45   12.644  4:453.51+9:43
9  Patrick RoosenboomZele34.59M50   12.349  4:523.43+10:32
10  Marc GorisVosselaar36.16M50   11.912  5:023.31+11:49
11  Leo KaijserTerneuzen36.49M55   11.734  5:073.26+12:22
12  Bart de ClerckVogelwaarde37.02Mse   11.665  5:093.24+12:35
13  Veerle GeysenKoewacht37.16V35   11.592  5:113.22+12:49
14  Kevin WillemsBrugge37.53Mse   11.403  5:163.17+13:26
15  Lauran van de DriesKloosterzande38.15M60   11.294  5:193.14+13:48
16  Reggie BunSint Jansteen38.20M50   11.270  5:193.13+13:53
17  Ria ClijmansVosselaar38.59V50   11.082  5:253.08+14:32
18  Luc DhontZaffelare39.13M55   11.016  5:273.06+14:46
19  Didier van NieuwenhuyzeAssenede39.16M50   11.002  5:273.06+14:49
20  Johan de ZeeuwAxel42.19M55   10.209  5:532.84+17:52
21  Marian van VorenTerneuzen42.27V60   10.177  5:542.83+18:00
22  Rudy van de VeldeWachtebeke42.40M55   10.125  5:562.81+18:13
23  Tessa van HoveKoewacht43.12Vse   10.000  6:002.78+18:45
24  Brigitte de VreezeBeveren44.54V55   9.621  6:142.67+20:27
25  Lies WindeijKoewacht45.43V40   9.450  6:212.62+21:16
26  Ine de DeyneKemzeke45.57V65   9.402  6:232.61+21:30
27  Antoine MathysDe Pinte47.29M65   9.098  6:362.53+23:02
28  Jacky DoomsSluiskil47.42M55   9.057  6:382.52+23:15
29  Lidy JonkerTerneuzen47.44V50   9.050  6:382.51+23:17
30  Nikki RoelsHulst47.51Vse   9.028  6:392.51+23:24
31  Aime SamsonSint-Pauwels53.38M65   8.055  7:272.24+29:11
32  Saskie KesterlooKoewacht53.49V45   8.027  7:282.23+29:22
33  Greta de VijlderSint-Gillis-Waas59.49V70   7.222  8:182.01+35:22
Mannen: 21 (63.64%) => M40=1 - M45=1 - M50=4 - M55=5 - M60=2 - M65=2 - Mse=6
Vrouwen: 12 (36.36%) => V35=1 - V40=1 - V45=1 - V50=2 - V55=1 - V60=1 - V65=1 - V70=1 - Vse=3

Snelheid en tempo zijn berekend op de vermelde afstand. Bij een onjuiste afstand wijken deze uiteraard af!

Fouten melden via info@atletiekzeeland.nl Categorie fout? Mail dan geboortedatum. (geldt alleen voor Zeeuwen)

De server had 0.213 seconden nodig om deze lijst met 81 prestaties samen te stellen.

Terug naar boven


 
Laatste reactie:
Jan Roose: Train Eens Mee Met De M.R.T...
Recente Zeeuwse prestaties meer prestaties
17-08: Meeting voor Mon Kessel-Lo ( 3)
1500 m Wouter Verstraate (PR)4.08.24  Mse
1500 m Paavo de Leng (PR)4.12.64  JoA
1500 m Marijke de Visser (PR 4.15.55)4.23.55  Vse
09-08: Track Meeting Utrecht ( 2)
1500 m Marijke de Visser (PR 4.15.55)4.25.51  Vse
800 m Bezuayehu Petersen (PR 1.57.99)1.59.99  JoA
03-08: Memorial Rasschaert Ninove ( 1)
27-07: Internationaal Antwerps Atletiekgala Merksem ( 4)
26-07: NK baan Senioren Den Haag ( 8)
21-07: Gentse Feesten Meeting 2)
13-07: Guldensporenmeeting Kortrijk ( 2)
12-07: Track Meeting Utrecht ( 2)
07-07: Gouden 3000m Ertvelde ( 4)
07-07: Gletscher Marathon Imst ( 1)
04-07: Track Meeting Rotterdam ( 3)
23-06: Grote Prijs Lokeren 6)
23-06: 36e Halve Marathon Roosendaal 34)
Atletiek Zeeland © 2019